Holyrood, Kansas
Current Conditions -  °F | °C
As of 2:53 PM on Thursday 20 Nov 2014 (Local Time) from KRSL Reporting Station
Clear Clear  
Wind Chill: 45°   Ceiling: Unl
Heat Index: 48°   Visibility: 10mi
Dew Point: 24°   Wind: 7mph
Humidity: 39%   Direction: 130°SE
Pressure: 30.04"   Gusts: NA
Location:  38.59°N, 98.41°W
Report Text: KRSL 202053Z AUTO 13006KT 10SM CLR 09/M04 A3004 RMK AO2 SLP188 T00891044 56020
Loading
Personal Weather Stations






























Interactive Weather Map New forecast layout! Learn more

10-Day Weather Forecast

Advertisements
Track Severe Weather on mobile